Terminal Aerodrome Forecast
Issued by NWS

Home | Current Version | Previous Version | Graphics & Text | Print | Product List | Glossary On
Versions: 1 2 3 4 5 6 7 8 9 10 11 12 13
024
FTUS43 KGRB 072338
TAFATW
TAF
KATW 072338Z 0800/0824 22007KT P6SM SCT025 BKN040
      TEMPO 0802/0806 BKN025
     FM080600 25006KT 6SM -SN SCT008 OVC015
     FM080900 28008KT 5SM -SN BR OVC008
     FM081200 29010G20KT 3SM -SN BR OVC011=

USA.gov is the U.S. government's official web portal to all federal, state and local government web resources and services.